<?xml version="1.0" encoding="utf-8"?>
<gpx xmlns:xsi="http://www.w3.org/2001/XMLSchema-instance" xmlns:xsd="http://www.w3.org/2001/XMLSchema" version="1.1" creator="Shapelink.com" xmlns="http://www.topografix.com/GPX/1/1" xmlns:gpxtpx="http://www.garmin.com/xmlschemas/TrackPointExtension/v1">
  <metadata>
    <name>Övrigt 4.18 km, 2019-07-19</name>
    <desc></desc>
    <author><name>Marian Moron</name></author> 
    <time>2019-07-19T20:35:03Z</time>
  </metadata>
  <trk>
    <name>Övrigt 4.18 km, 2019-07-19</name>
    <trkseg>
      <trkpt lat="51.230324177114" lon="4.458578702584">
        <ele>0</ele>
        <time>2019-07-19T20:35:03Z</time>
      </trkpt>
      <trkpt lat="51.230327781331" lon="4.458799230373">
        <ele>0</ele>
        <time>2019-07-19T20:35:13Z</time>
      </trkpt>
      <trkpt lat="51.230347059701" lon="4.458801912581">
        <ele>0</ele>
        <time>2019-07-19T20:35:15Z</time>
      </trkpt>
      <trkpt lat="51.230615531958" lon="4.458883552287">
        <ele>0</ele>
        <time>2019-07-19T20:35:40Z</time>
      </trkpt>
      <trkpt lat="51.230679821131" lon="4.458648356173">
        <ele>0</ele>
        <time>2019-07-19T20:35:52Z</time>
      </trkpt>
      <trkpt lat="51.230750648186" lon="4.458920935561">
        <ele>0</ele>
        <time>2019-07-19T20:36:17Z</time>
      </trkpt>
      <trkpt lat="51.230556020468" lon="4.45910542118">
        <ele>0</ele>
        <time>2019-07-19T20:36:29Z</time>
      </trkpt>
      <trkpt lat="51.230552751527" lon="4.459416976403">
        <ele>0</ele>
        <time>2019-07-19T20:36:54Z</time>
      </trkpt>
      <trkpt lat="51.230790965125" lon="4.459688969058">
        <ele>3.6</ele>
        <time>2019-07-19T20:37:48Z</time>
      </trkpt>
      <trkpt lat="51.231243755363" lon="4.459626942998">
        <ele>6</ele>
        <time>2019-07-19T20:38:24Z</time>
      </trkpt>
      <trkpt lat="51.231604177063" lon="4.459623338781">
        <ele>4</ele>
        <time>2019-07-19T20:38:54Z</time>
      </trkpt>
      <trkpt lat="51.231768210846" lon="4.459492581141">
        <ele>1.6</ele>
        <time>2019-07-19T20:39:17Z</time>
      </trkpt>
      <trkpt lat="51.23181900516" lon="4.459526695474">
        <ele>0.6</ele>
        <time>2019-07-19T20:39:21Z</time>
      </trkpt>
      <trkpt lat="51.231816406771" lon="4.459694082017">
        <ele>0</ele>
        <time>2019-07-19T20:39:29Z</time>
      </trkpt>
      <trkpt lat="51.231877846098" lon="4.45990756901">
        <ele>0</ele>
        <time>2019-07-19T20:39:43Z</time>
      </trkpt>
      <trkpt lat="51.232001227666" lon="4.460603769624">
        <ele>0.4</ele>
        <time>2019-07-19T20:40:19Z</time>
      </trkpt>
      <trkpt lat="51.232016231267" lon="4.460768557778">
        <ele>0</ele>
        <time>2019-07-19T20:40:27Z</time>
      </trkpt>
      <trkpt lat="51.232137349722" lon="4.461315057658">
        <ele>0</ele>
        <time>2019-07-19T20:40:54Z</time>
      </trkpt>
      <trkpt lat="51.232133661686" lon="4.461397703192">
        <ele>0</ele>
        <time>2019-07-19T20:41:05Z</time>
      </trkpt>
      <trkpt lat="51.232183282534" lon="4.461877566967">
        <ele>0.4</ele>
        <time>2019-07-19T20:41:29Z</time>
      </trkpt>
      <trkpt lat="51.232213457374" lon="4.461933390421">
        <ele>1.4</ele>
        <time>2019-07-19T20:41:33Z</time>
      </trkpt>
      <trkpt lat="51.232270286656" lon="4.462647276844">
        <ele>4</ele>
        <time>2019-07-19T20:42:10Z</time>
      </trkpt>
      <trkpt lat="51.232280428755" lon="4.462757666467">
        <ele>6</ele>
        <time>2019-07-19T20:42:16Z</time>
      </trkpt>
      <trkpt lat="51.232405235246" lon="4.46287476161">
        <ele>0.6</ele>
        <time>2019-07-19T20:43:04Z</time>
      </trkpt>
      <trkpt lat="51.232850984688" lon="4.462690862724">
        <ele>21</ele>
        <time>2019-07-19T20:43:39Z</time>
      </trkpt>
      <trkpt lat="51.233113421977" lon="4.462569073717">
        <ele>20.8</ele>
        <time>2019-07-19T20:44:00Z</time>
      </trkpt>
      <trkpt lat="51.233167736689" lon="4.462615090348">
        <ele>17</ele>
        <time>2019-07-19T20:44:04Z</time>
      </trkpt>
      <trkpt lat="51.233300338347" lon="4.462575108685">
        <ele>11.2</ele>
        <time>2019-07-19T20:44:21Z</time>
      </trkpt>
      <trkpt lat="51.233392790704" lon="4.463275332611">
        <ele>2.2</ele>
        <time>2019-07-19T20:44:57Z</time>
      </trkpt>
      <trkpt lat="51.233426485942" lon="4.463720076225">
        <ele>0</ele>
        <time>2019-07-19T20:45:21Z</time>
      </trkpt>
      <trkpt lat="51.233408632495" lon="4.464029955068">
        <ele>0</ele>
        <time>2019-07-19T20:45:52Z</time>
      </trkpt>
      <trkpt lat="51.233461941379" lon="4.464131459877">
        <ele>0</ele>
        <time>2019-07-19T20:45:57Z</time>
      </trkpt>
      <trkpt lat="51.233269325317" lon="4.464583328106">
        <ele>0</ele>
        <time>2019-07-19T20:46:24Z</time>
      </trkpt>
      <trkpt lat="51.233260775779" lon="4.464630937298">
        <ele>0</ele>
        <time>2019-07-19T20:46:27Z</time>
      </trkpt>
      <trkpt lat="51.233259686132" lon="4.464601684467">
        <ele>0</ele>
        <time>2019-07-19T20:46:30Z</time>
      </trkpt>
      <trkpt lat="51.233590268268" lon="4.464468076981">
        <ele>6.4</ele>
        <time>2019-07-19T20:47:00Z</time>
      </trkpt>
      <trkpt lat="51.233642487505" lon="4.465113986195">
        <ele>0</ele>
        <time>2019-07-19T20:47:29Z</time>
      </trkpt>
      <trkpt lat="51.233638296555" lon="4.465183555965">
        <ele>0</ele>
        <time>2019-07-19T20:47:35Z</time>
      </trkpt>
      <trkpt lat="51.233678278218" lon="4.465567949899">
        <ele>0</ele>
        <time>2019-07-19T20:47:51Z</time>
      </trkpt>
      <trkpt lat="51.23368816886" lon="4.465615307634">
        <ele>0</ele>
        <time>2019-07-19T20:47:53Z</time>
      </trkpt>
      <trkpt lat="51.233737119156" lon="4.46592828778">
        <ele>0</ele>
        <time>2019-07-19T20:48:10Z</time>
      </trkpt>
      <trkpt lat="51.23379210442" lon="4.466243363401">
        <ele>0</ele>
        <time>2019-07-19T20:48:29Z</time>
      </trkpt>
      <trkpt lat="51.233836863766" lon="4.466600180884">
        <ele>0</ele>
        <time>2019-07-19T20:48:57Z</time>
      </trkpt>
      <trkpt lat="51.233855052489" lon="4.466777793345">
        <ele>0</ele>
        <time>2019-07-19T20:49:05Z</time>
      </trkpt>
      <trkpt lat="51.233868212072" lon="4.466828168564">
        <ele>0</ele>
        <time>2019-07-19T20:49:08Z</time>
      </trkpt>
      <trkpt lat="51.233892854858" lon="4.466919531274">
        <ele>0</ele>
        <time>2019-07-19T20:49:23Z</time>
      </trkpt>
      <trkpt lat="51.23403182676" lon="4.467616821535">
        <ele>0</ele>
        <time>2019-07-19T20:49:59Z</time>
      </trkpt>
      <trkpt lat="51.234040543936" lon="4.467654037171">
        <ele>0</ele>
        <time>2019-07-19T20:50:01Z</time>
      </trkpt>
      <trkpt lat="51.234043393782" lon="4.46775554198">
        <ele>0</ele>
        <time>2019-07-19T20:50:05Z</time>
      </trkpt>
      <trkpt lat="51.234132828655" lon="4.46845375425">
        <ele>0</ele>
        <time>2019-07-19T20:50:46Z</time>
      </trkpt>
      <trkpt lat="51.234137271062" lon="4.468513852473">
        <ele>0</ele>
        <time>2019-07-19T20:50:50Z</time>
      </trkpt>
      <trkpt lat="51.234171469214" lon="4.468714850435">
        <ele>0</ele>
        <time>2019-07-19T20:51:03Z</time>
      </trkpt>
      <trkpt lat="51.234213462533" lon="4.468934540034">
        <ele>0</ele>
        <time>2019-07-19T20:51:16Z</time>
      </trkpt>
      <trkpt lat="51.23426149082" lon="4.46947299329">
        <ele>0</ele>
        <time>2019-07-19T20:51:41Z</time>
      </trkpt>
      <trkpt lat="51.234330809133" lon="4.469781866305">
        <ele>0</ele>
        <time>2019-07-19T20:51:59Z</time>
      </trkpt>
      <trkpt lat="51.234403731663" lon="4.470087973293">
        <ele>0</ele>
        <time>2019-07-19T20:52:21Z</time>
      </trkpt>
      <trkpt lat="51.234482689161" lon="4.470410676443">
        <ele>0</ele>
        <time>2019-07-19T20:52:43Z</time>
      </trkpt>
      <trkpt lat="51.234496770753" lon="4.470480665308">
        <ele>0</ele>
        <time>2019-07-19T20:52:47Z</time>
      </trkpt>
      <trkpt lat="51.23451713877" lon="4.470477564005">
        <ele>0</ele>
        <time>2019-07-19T20:52:58Z</time>
      </trkpt>
      <trkpt lat="51.234579835382" lon="4.471167981108">
        <ele>0</ele>
        <time>2019-07-19T20:53:32Z</time>
      </trkpt>
      <trkpt lat="51.2346906441" lon="4.471857560021">
        <ele>0</ele>
        <time>2019-07-19T20:54:06Z</time>
      </trkpt>
      <trkpt lat="51.234818803351" lon="4.472543786174">
        <ele>0</ele>
        <time>2019-07-19T20:54:34Z</time>
      </trkpt>
      <trkpt lat="51.234935647037" lon="4.473028930546">
        <ele>0</ele>
        <time>2019-07-19T20:55:09Z</time>
      </trkpt>
      <trkpt lat="51.234948387525" lon="4.473173015407">
        <ele>0</ele>
        <time>2019-07-19T20:55:16Z</time>
      </trkpt>
      <trkpt lat="51.23497311413" lon="4.47337979688">
        <ele>0</ele>
        <time>2019-07-19T20:55:26Z</time>
      </trkpt>
      <trkpt lat="51.23486582581" lon="4.473415336136">
        <ele>0</ele>
        <time>2019-07-19T20:55:38Z</time>
      </trkpt>
      <trkpt lat="51.234726853908" lon="4.473193467243">
        <ele>0</ele>
        <time>2019-07-19T20:56:01Z</time>
      </trkpt>
      <trkpt lat="51.234614955543" lon="4.473437548171">
        <ele>0</ele>
        <time>2019-07-19T20:56:44Z</time>
      </trkpt>
      <trkpt lat="51.23453809352" lon="4.473601330497">
        <ele>1</ele>
        <time>2019-07-19T20:57:03Z</time>
      </trkpt>
      <trkpt lat="51.234514791838" lon="4.473633684631">
        <ele>0.6</ele>
        <time>2019-07-19T20:57:06Z</time>
      </trkpt>
      <trkpt lat="51.2341290568" lon="4.474009109932">
        <ele>6.6</ele>
        <time>2019-07-19T20:57:48Z</time>
      </trkpt>
      <trkpt lat="51.233758325363" lon="4.474431390054">
        <ele>0.8</ele>
        <time>2019-07-19T20:58:25Z</time>
      </trkpt>
      <trkpt lat="51.233407710486" lon="4.474869931062">
        <ele>4.4</ele>
        <time>2019-07-19T20:59:26Z</time>
      </trkpt>
      <trkpt lat="51.233143261541" lon="4.475226664726">
        <ele>1.8</ele>
        <time>2019-07-19T21:00:17Z</time>
      </trkpt>
      <trkpt lat="51.232778145977" lon="4.475670905426">
        <ele>7.8</ele>
        <time>2019-07-19T21:01:03Z</time>
      </trkpt>
      <trkpt lat="51.232610424158" lon="4.475757825729">
        <ele>11</ele>
        <time>2019-07-19T21:01:20Z</time>
      </trkpt>
      <trkpt lat="51.232525683149" lon="4.47561860237">
        <ele>10</ele>
        <time>2019-07-19T21:01:34Z</time>
      </trkpt>
      <trkpt lat="51.232503554933" lon="4.475584990951">
        <ele>9</ele>
        <time>2019-07-19T21:01:36Z</time>
      </trkpt>
      <trkpt lat="51.232292331053" lon="4.474955761718">
        <ele>2.2</ele>
        <time>2019-07-19T21:02:15Z</time>
      </trkpt>
      <trkpt lat="51.232050429419" lon="4.474335752575">
        <ele>0.4</ele>
        <time>2019-07-19T21:02:52Z</time>
      </trkpt>
      <trkpt lat="51.231730073201" lon="4.473830324005">
        <ele>1.2</ele>
        <time>2019-07-19T21:03:27Z</time>
      </trkpt>
      <trkpt lat="51.23165891087" lon="4.473765867194">
        <ele>0.2</ele>
        <time>2019-07-19T21:03:38Z</time>
      </trkpt>
      <trkpt lat="51.231435617054" lon="4.473651286621">
        <ele>0</ele>
        <time>2019-07-19T21:04:02Z</time>
      </trkpt>
      <trkpt lat="51.231119535605" lon="4.473162286575">
        <ele>3.8</ele>
        <time>2019-07-19T21:04:33Z</time>
      </trkpt>
      <trkpt lat="51.231079134847" lon="4.473067487286">
        <ele>3.2</ele>
        <time>2019-07-19T21:04:39Z</time>
      </trkpt>
      <trkpt lat="51.231046361618" lon="4.473033792048">
        <ele>2.4</ele>
        <time>2019-07-19T21:04:43Z</time>
      </trkpt>
      <trkpt lat="51.231023981945" lon="4.472995570584">
        <ele>1.6</ele>
        <time>2019-07-19T21:04:46Z</time>
      </trkpt>
      <trkpt lat="51.230959525134" lon="4.472958019672">
        <ele>1.8</ele>
        <time>2019-07-19T21:04:52Z</time>
      </trkpt>
      <trkpt lat="51.23092381824" lon="4.472920552579">
        <ele>1.8</ele>
        <time>2019-07-19T21:04:57Z</time>
      </trkpt>
      <trkpt lat="51.230885680595" lon="4.472862466012">
        <ele>1.4</ele>
        <time>2019-07-19T21:05:01Z</time>
      </trkpt>
      <trkpt lat="51.230847123855" lon="4.472812258431">
        <ele>1.4</ele>
        <time>2019-07-19T21:05:04Z</time>
      </trkpt>
      <trkpt lat="51.230858523239" lon="4.472670352864">
        <ele>1.6</ele>
        <time>2019-07-19T21:05:29Z</time>
      </trkpt>
      <trkpt lat="51.230844022552" lon="4.472708490509">
        <ele>1.4</ele>
        <time>2019-07-19T21:05:32Z</time>
      </trkpt>
      <trkpt lat="51.230719718975" lon="4.472790716948">
        <ele>0</ele>
        <time>2019-07-19T21:05:51Z</time>
      </trkpt>
      <trkpt lat="51.230780655388" lon="4.472541690699">
        <ele>0</ele>
        <time>2019-07-19T21:06:15Z</time>
      </trkpt>
      <trkpt lat="51.230811081685" lon="4.472203732491">
        <ele>0</ele>
        <time>2019-07-19T21:06:31Z</time>
      </trkpt>
      <trkpt lat="51.230646125893" lon="4.47193056637">
        <ele>0</ele>
        <time>2019-07-19T21:06:54Z</time>
      </trkpt>
      <trkpt lat="51.230594241932" lon="4.471968033463">
        <ele>0</ele>
        <time>2019-07-19T21:06:59Z</time>
      </trkpt>
      <trkpt lat="51.230486115422" lon="4.472000722873">
        <ele>0</ele>
        <time>2019-07-19T21:07:12Z</time>
      </trkpt>
      <trkpt lat="51.230334486851" lon="4.472187723062">
        <ele>3.4</ele>
        <time>2019-07-19T21:07:40Z</time>
      </trkpt>
      <trkpt lat="51.230323590381" lon="4.472364245876">
        <ele>4</ele>
        <time>2019-07-19T21:07:58Z</time>
      </trkpt>
      <trkpt lat="51.230321327268" lon="4.472419734054">
        <ele>4</ele>
        <time>2019-07-19T21:08:04Z</time>
      </trkpt>
      <trkpt lat="51.230162490263" lon="4.472855173759">
        <ele>4.2</ele>
        <time>2019-07-19T21:09:03Z</time>
      </trkpt>
      <trkpt lat="51.230066852784" lon="4.473005712683">
        <ele>4.6</ele>
        <time>2019-07-19T21:09:16Z</time>
      </trkpt>
      <trkpt lat="51.230089483914" lon="4.473070253313">
        <ele>4.6</ele>
        <time>2019-07-19T21:09:22Z</time>
      </trkpt>
      <trkpt lat="51.230268940393" lon="4.473727729549">
        <ele>2.4</ele>
        <time>2019-07-19T21:10:00Z</time>
      </trkpt>
      <trkpt lat="51.23047622478" lon="4.474304907183">
        <ele>3.8</ele>
        <time>2019-07-19T21:10:47Z</time>
      </trkpt>
      <trkpt lat="51.230449905614" lon="4.47435293547">
        <ele>3.8</ele>
        <time>2019-07-19T21:10:51Z</time>
      </trkpt>
      <trkpt lat="51.230407325562" lon="4.474394090599">
        <ele>0</ele>
        <time>2019-07-19T21:10:57Z</time>
      </trkpt>
      <trkpt lat="51.230274304809" lon="4.474499031987">
        <ele>0</ele>
        <time>2019-07-19T21:11:13Z</time>
      </trkpt>
      <trkpt lat="51.230223426676" lon="4.474393420047">
        <ele>0</ele>
        <time>2019-07-19T21:11:21Z</time>
      </trkpt>
      <trkpt lat="51.230210099455" lon="4.474367939071">
        <ele>0</ele>
        <time>2019-07-19T21:11:23Z</time>
      </trkpt>
      <trkpt lat="51.230161568254" lon="4.474263584416">
        <ele>0</ele>
        <time>2019-07-19T21:11:32Z</time>
      </trkpt>
      <trkpt lat="51.23003366046" lon="4.47399754291">
        <ele>0</ele>
        <time>2019-07-19T21:11:56Z</time>
      </trkpt>
      <trkpt lat="51.230031732623" lon="4.473977174893">
        <ele>0</ele>
        <time>2019-07-19T21:11:58Z</time>
      </trkpt>
      <trkpt lat="51.229774827388" lon="4.473385915667">
        <ele>0</ele>
        <time>2019-07-19T21:12:37Z</time>
      </trkpt>
      <trkpt lat="51.229512641556" lon="4.472803792712">
        <ele>0</ele>
        <time>2019-07-19T21:13:16Z</time>
      </trkpt>
      <trkpt lat="51.229502667095" lon="4.472782502686">
        <ele>0</ele>
        <time>2019-07-19T21:13:18Z</time>
      </trkpt>
      <trkpt lat="51.229455476998" lon="4.472634226875">
        <ele>0</ele>
        <time>2019-07-19T21:13:28Z</time>
      </trkpt>
      <trkpt lat="51.229404012132" lon="4.472450579446">
        <ele>0</ele>
        <time>2019-07-19T21:13:47Z</time>
      </trkpt>
      <trkpt lat="51.22921810159" lon="4.472014301551">
        <ele>0</ele>
        <time>2019-07-19T21:14:16Z</time>
      </trkpt>
      <trkpt lat="51.229053061979" lon="4.471679025551">
        <ele>0</ele>
        <time>2019-07-19T21:14:38Z</time>
      </trkpt>
      <trkpt lat="51.228850722913" lon="4.471198323586">
        <ele>0</ele>
        <time>2019-07-19T21:15:09Z</time>
      </trkpt>
      <trkpt lat="51.228677049945" lon="4.470813678195">
        <ele>0</ele>
        <time>2019-07-19T21:15:36Z</time>
      </trkpt>
      <trkpt lat="51.22857018072" lon="4.470613602242">
        <ele>0</ele>
        <time>2019-07-19T21:15:58Z</time>
      </trkpt>
      <trkpt lat="51.228421737271" lon="4.470270531075">
        <ele>1.4</ele>
        <time>2019-07-19T21:16:29Z</time>
      </trkpt>
      <trkpt lat="51.228325596878" lon="4.469982528991">
        <ele>2</ele>
        <time>2019-07-19T21:16:44Z</time>
      </trkpt>
      <trkpt lat="51.228288967975" lon="4.469892758842">
        <ele>1.6</ele>
        <time>2019-07-19T21:16:51Z</time>
      </trkpt>
      <trkpt lat="51.228255943289" lon="4.469789158558">
        <ele>0</ele>
        <time>2019-07-19T21:16:59Z</time>
      </trkpt>
      <trkpt lat="51.228236162005" lon="4.4697403759">
        <ele>0</ele>
        <time>2019-07-19T21:17:03Z</time>
      </trkpt>
      <trkpt lat="51.228205735708" lon="4.469699388409">
        <ele>0</ele>
        <time>2019-07-19T21:17:07Z</time>
      </trkpt>
      <trkpt lat="51.22818796608" lon="4.469675499994">
        <ele>0</ele>
        <time>2019-07-19T21:17:09Z</time>
      </trkpt>
      <trkpt lat="51.228124598916" lon="4.469577850859">
        <ele>0</ele>
        <time>2019-07-19T21:17:27Z</time>
      </trkpt>
      <trkpt lat="51.228066093254" lon="4.469415241999">
        <ele>0</ele>
        <time>2019-07-19T21:17:56Z</time>
      </trkpt>
      <trkpt lat="51.228000127701" lon="4.469210136906">
        <ele>0</ele>
        <time>2019-07-19T21:18:17Z</time>
      </trkpt>
      <trkpt lat="51.227961738599" lon="4.469111984857">
        <ele>2.2</ele>
        <time>2019-07-19T21:18:29Z</time>
      </trkpt>
      <trkpt lat="51.227953356699" lon="4.469047444227">
        <ele>3.8</ele>
        <time>2019-07-19T21:18:33Z</time>
      </trkpt>
      <trkpt lat="51.227949501025" lon="4.468977623">
        <ele>3.8</ele>
        <time>2019-07-19T21:18:37Z</time>
      </trkpt>
      <trkpt lat="51.227946399722" lon="4.468919871709">
        <ele>5.2</ele>
        <time>2019-07-19T21:18:42Z</time>
      </trkpt>
      <trkpt lat="51.227943801333" lon="4.468880812055">
        <ele>6.4</ele>
        <time>2019-07-19T21:18:46Z</time>
      </trkpt>
      <trkpt lat="51.227915219054" lon="4.468788694974">
        <ele>7.6</ele>
        <time>2019-07-19T21:19:08Z</time>
      </trkpt>
      <trkpt lat="51.227798543006" lon="4.468400026271">
        <ele>0</ele>
        <time>2019-07-19T21:19:47Z</time>
      </trkpt>
      <trkpt lat="51.227764596311" lon="4.468174888437">
        <ele>0</ele>
        <time>2019-07-19T21:19:59Z</time>
      </trkpt>
      <trkpt lat="51.227608106238" lon="4.467498804383">
        <ele>0</ele>
        <time>2019-07-19T21:20:38Z</time>
      </trkpt>
      <trkpt lat="51.227574243362" lon="4.467366538001">
        <ele>0</ele>
        <time>2019-07-19T21:20:45Z</time>
      </trkpt>
      <trkpt lat="51.22747299001" lon="4.466973007796">
        <ele>0</ele>
        <time>2019-07-19T21:21:08Z</time>
      </trkpt>
      <trkpt lat="51.22741180214" lon="4.466694141983">
        <ele>0.8</ele>
        <time>2019-07-19T21:21:47Z</time>
      </trkpt>
      <trkpt lat="51.227336448859" lon="4.466567994388">
        <ele>0.2</ele>
        <time>2019-07-19T21:22:05Z</time>
      </trkpt>
      <trkpt lat="51.227290935142" lon="4.466316453569">
        <ele>4.2</ele>
        <time>2019-07-19T21:22:22Z</time>
      </trkpt>
      <trkpt lat="51.22731038115" lon="4.466287452195">
        <ele>4.8</ele>
        <time>2019-07-19T21:22:25Z</time>
      </trkpt>
      <trkpt lat="51.227443318084" lon="4.466325086926">
        <ele>8.4</ele>
        <time>2019-07-19T21:22:42Z</time>
      </trkpt>
      <trkpt lat="51.227506433791" lon="4.46635744106">
        <ele>8</ele>
        <time>2019-07-19T21:22:48Z</time>
      </trkpt>
      <trkpt lat="51.227575668285" lon="4.466414773256">
        <ele>6.4</ele>
        <time>2019-07-19T21:22:58Z</time>
      </trkpt>
      <trkpt lat="51.227752694013" lon="4.466580148143">
        <ele>5.4</ele>
        <time>2019-07-19T21:23:18Z</time>
      </trkpt>
      <trkpt lat="51.227828885484" lon="4.466445115734">
        <ele>4.4</ele>
        <time>2019-07-19T21:23:32Z</time>
      </trkpt>
      <trkpt lat="51.227844727275" lon="4.466371857928">
        <ele>5.2</ele>
        <time>2019-07-19T21:23:46Z</time>
      </trkpt>
      <trkpt lat="51.227879847436" lon="4.465823346392">
        <ele>15.8</ele>
        <time>2019-07-19T21:24:24Z</time>
      </trkpt>
      <trkpt lat="51.227866352577" lon="4.465123793018">
        <ele>24.4</ele>
        <time>2019-07-19T21:25:08Z</time>
      </trkpt>
      <trkpt lat="51.227795776979" lon="4.464411582975">
        <ele>27.6</ele>
        <time>2019-07-19T21:25:49Z</time>
      </trkpt>
      <trkpt lat="51.227778761722" lon="4.464079492097">
        <ele>38.2</ele>
        <time>2019-07-19T21:26:19Z</time>
      </trkpt>
      <trkpt lat="51.227680944949" lon="4.463429224295">
        <ele>1.8</ele>
        <time>2019-07-19T21:26:54Z</time>
      </trkpt>
      <trkpt lat="51.227679352388" lon="4.463376502144">
        <ele>0</ele>
        <time>2019-07-19T21:26:57Z</time>
      </trkpt>
      <trkpt lat="51.227697038197" lon="4.463351524082">
        <ele>0</ele>
        <time>2019-07-19T21:27:00Z</time>
      </trkpt>
      <trkpt lat="51.227707347934" lon="4.463355295937">
        <ele>0</ele>
        <time>2019-07-19T21:27:02Z</time>
      </trkpt>
      <trkpt lat="51.227665606072" lon="4.463384213492">
        <ele>0</ele>
        <time>2019-07-19T21:27:07Z</time>
      </trkpt>
      <trkpt lat="51.22765655362" lon="4.463358061964">
        <ele>0</ele>
        <time>2019-07-19T21:27:09Z</time>
      </trkpt>
      <trkpt lat="51.227643896951" lon="4.463147592455">
        <ele>0</ele>
        <time>2019-07-19T21:27:20Z</time>
      </trkpt>
      <trkpt lat="51.227648674634" lon="4.462957658601">
        <ele>0</ele>
        <time>2019-07-19T21:27:34Z</time>
      </trkpt>
      <trkpt lat="51.227760740637" lon="4.462886747727">
        <ele>0.2</ele>
        <time>2019-07-19T21:27:54Z</time>
      </trkpt>
      <trkpt lat="51.227799213558" lon="4.462759594304">
        <ele>3.4</ele>
        <time>2019-07-19T21:28:06Z</time>
      </trkpt>
      <trkpt lat="51.227812205503" lon="4.462182835765">
        <ele>7</ele>
        <time>2019-07-19T21:28:47Z</time>
      </trkpt>
      <trkpt lat="51.227785131966" lon="4.461688974217">
        <ele>8.2</ele>
        <time>2019-07-19T21:29:23Z</time>
      </trkpt>
      <trkpt lat="51.227837686479" lon="4.461303322998">
        <ele>13.2</ele>
        <time>2019-07-19T21:29:47Z</time>
      </trkpt>
      <trkpt lat="51.227792508038" lon="4.460709297745">
        <ele>17.6</ele>
        <time>2019-07-19T21:30:25Z</time>
      </trkpt>
      <trkpt lat="51.227798710644" lon="4.460634028283">
        <ele>16.2</ele>
        <time>2019-07-19T21:30:32Z</time>
      </trkpt>
      <trkpt lat="51.228078582285" lon="4.460504276471">
        <ele>27.8</ele>
        <time>2019-07-19T21:31:13Z</time>
      </trkpt>
      <trkpt lat="51.228199616921" lon="4.460317946834">
        <ele>23.4</ele>
        <time>2019-07-19T21:31:33Z</time>
      </trkpt>
      <trkpt lat="51.228351245492" lon="4.459726687608">
        <ele>14.4</ele>
        <time>2019-07-19T21:32:11Z</time>
      </trkpt>
      <trkpt lat="51.228415283208" lon="4.459557708504">
        <ele>13.2</ele>
        <time>2019-07-19T21:32:26Z</time>
      </trkpt>
      <trkpt lat="51.228468256816" lon="4.459309017531">
        <ele>10.4</ele>
        <time>2019-07-19T21:32:43Z</time>
      </trkpt>
      <trkpt lat="51.228488541014" lon="4.45916828543">
        <ele>14</ele>
        <time>2019-07-19T21:33:12Z</time>
      </trkpt>
      <trkpt lat="51.228523661175" lon="4.458913727127">
        <ele>11.4</ele>
        <time>2019-07-19T21:33:31Z</time>
      </trkpt>
      <trkpt lat="51.228514943999" lon="4.458866788487">
        <ele>11.2</ele>
        <time>2019-07-19T21:33:34Z</time>
      </trkpt>
      <trkpt lat="51.228528857953" lon="4.4582739367">
        <ele>11</ele>
        <time>2019-07-19T21:34:16Z</time>
      </trkpt>
      <trkpt lat="51.228916185552" lon="4.45813479716">
        <ele>13</ele>
        <time>2019-07-19T21:34:59Z</time>
      </trkpt>
      <trkpt lat="51.229361096804" lon="4.457998675104">
        <ele>15.4</ele>
        <time>2019-07-19T21:35:33Z</time>
      </trkpt>
      <trkpt lat="51.229810785739" lon="4.457934134474">
        <ele>16.4</ele>
        <time>2019-07-19T21:36:10Z</time>
      </trkpt>
      <trkpt lat="51.229827633358" lon="4.457888956033">
        <ele>17</ele>
        <time>2019-07-19T21:36:13Z</time>
      </trkpt>
      <trkpt lat="51.229838948923" lon="4.457619980862">
        <ele>5.6</ele>
        <time>2019-07-19T21:36:33Z</time>
      </trkpt>
      <trkpt lat="51.229839703294" lon="4.457673038289">
        <ele>3.6</ele>
        <time>2019-07-19T21:36:37Z</time>
      </trkpt>
      <trkpt lat="51.229863340252" lon="4.457889291309">
        <ele>1.6</ele>
        <time>2019-07-19T21:37:10Z</time>
      </trkpt>
      <trkpt lat="51.22984842047" lon="4.457912006258">
        <ele>1.8</ele>
        <time>2019-07-19T21:37:12Z</time>
      </trkpt>
      <trkpt lat="51.229690170198" lon="4.457994903249">
        <ele>9.8</ele>
        <time>2019-07-19T21:37:56Z</time>
      </trkpt>
    </trkseg>
  </trk>
</gpx>